Time;durP1;ratioP1;P1;durP2;ratioP2;P2;SDS_P1;SDS_P2;PMS_P1;PMS_P2;Temp;Humidity;BMP_temperature;BMP_pressure;BME280_temperature;BME280_humidity;BME280_pressure;Samples;Min_cycle;Max_cycle;Signal;HPM_P1;HPM_P2
2021/03/15 00:00:54;;;;;;;30.20;13.33;;;;;;;3.58;57.39;98132.33;124197;1105;104219;-71
2021/03/15 00:03:22;;;;;;;26.73;12.93;;;;;;;3.56;57.27;98136.00;124151;1105;104709;-71
2021/03/15 00:05:59;;;;;;;25.60;12.63;;;;;;;3.50;57.70;98129.30;124260;1105;104283;-70
2021/03/15 00:08:27;;;;;;;23.87;10.23;;;;;;;3.48;57.56;98131.17;124144;1105;104207;-71
2021/03/15 00:10:57;;;;;;;30.23;13.03;;;;;;;3.46;58.02;98140.96;126155;1104;104179;-71
2021/03/15 00:13:25;;;;;;;28.47;13.10;;;;;;;3.43;57.84;98146.39;126261;1105;102126;-71
2021/03/15 00:15:55;;;;;;;33.13;13.30;;;;;;;3.41;57.70;98150.89;126260;1105;101780;-72
2021/03/15 00:18:22;;;;;;;30.40;14.10;;;;;;;3.39;57.54;98153.59;126230;1105;102152;-71
2021/03/15 00:20:49;;;;;;;30.60;13.87;;;;;;;3.33;57.39;98153.95;125040;1105;104179;-71
2021/03/15 00:23:16;;;;;;;27.32;12.30;;;;;;;3.32;58.33;98154.05;124155;1105;104358;-73
2021/03/15 00:25:44;;;;;;;29.40;14.20;;;;;;;3.30;58.57;98153.29;123969;1106;104309;-71
2021/03/15 00:28:12;;;;;;;28.90;13.07;;;;;;;3.28;58.40;98150.73;124270;1105;104168;-71
2021/03/15 00:30:40;;;;;;;32.17;13.33;;;;;;;3.28;58.49;98148.97;124232;1105;104252;-72
2021/03/15 00:33:07;;;;;;;34.87;14.10;;;;;;;3.27;58.14;98149.90;124140;1105;104303;-72
2021/03/15 00:35:35;;;;;;;29.50;12.93;;;;;;;3.26;58.54;98139.48;124347;1105;104178;-72
2021/03/15 00:38:03;;;;;;;30.80;13.63;;;;;;;3.24;58.37;98150.08;124094;1105;104265;-72
2021/03/15 00:40:31;;;;;;;26.70;11.97;;;;;;;3.22;57.79;98151.11;124307;1105;104191;-73
2021/03/15 00:42:59;;;;;;;27.77;12.93;;;;;;;3.19;58.30;98153.91;124217;1105;104293;-73
2021/03/15 00:45:27;;;;;;;26.70;11.97;;;;;;;3.18;58.55;98160.10;124237;1106;104306;-74
2021/03/15 00:47:55;;;;;;;32.43;14.27;;;;;;;3.15;58.28;98153.22;124314;1106;104223;-72
2021/03/15 00:50:25;;;;;;;29.43;12.70;;;;;;;3.15;58.46;98158.48;124258;1105;104187;-75
2021/03/15 00:52:52;;;;;;;30.93;12.10;;;;;;;3.13;59.32;98155.95;124356;1105;104156;-71
2021/03/15 00:55:20;;;;;;;31.50;13.27;;;;;;;3.09;58.79;98159.69;124292;1105;104236;-72
2021/03/15 00:57:47;;;;;;;28.60;13.33;;;;;;;3.06;58.81;98166.88;124303;1105;104188;-72
2021/03/15 01:00:23;;;;;;;29.20;13.20;;;;;;;3.03;59.06;98162.66;124098;1105;104310;-70
2021/03/15 01:02:51;;;;;;;29.70;13.30;;;;;;;3.01;59.00;98167.14;124270;1105;104261;-73
2021/03/15 01:05:28;;;;;;;29.00;12.57;;;;;;;3.02;58.93;98168.01;124296;1105;104259;-71
2021/03/15 01:07:55;;;;;;;28.00;13.60;;;;;;;2.98;59.14;98168.18;124290;1104;104185;-72
2021/03/15 01:10:27;;;;;;;31.30;14.37;;;;;;;2.96;58.57;98162.16;124308;1105;104242;-72
2021/03/15 01:12:55;;;;;;;29.33;12.60;;;;;;;2.95;59.22;98167.48;124324;1105;104303;-70
2021/03/15 01:15:22;;;;;;;33.70;14.40;;;;;;;2.95;58.44;98163.09;124265;1105;104613;-72
2021/03/15 01:17:49;;;;;;;29.87;14.00;;;;;;;2.94;59.10;98168.42;124299;1105;104262;-72
2021/03/15 01:20:18;;;;;;;32.37;14.17;;;;;;;2.94;59.69;98165.79;124304;1105;104216;-72
2021/03/15 01:22:45;;;;;;;27.77;13.00;;;;;;;2.95;59.13;98164.86;124359;1105;104197;-73
2021/03/15 01:25:18;;;;;;;29.30;13.63;;;;;;;2.92;59.53;98165.89;124354;1105;104644;-73
2021/03/15 01:27:44;;;;;;;28.43;14.10;;;;;;;2.89;59.58;98154.69;124278;1105;104265;-73
2021/03/15 01:30:16;;;;;;;31.67;14.00;;;;;;;2.87;58.84;98160.05;124288;1105;104159;-72
2021/03/15 01:32:43;;;;;;;30.90;13.43;;;;;;;2.87;59.25;98161.81;124312;1105;104733;-72
2021/03/15 01:35:12;;;;;;;31.00;13.37;;;;;;;2.86;59.84;98162.73;124325;1105;104187;-71
2021/03/15 01:37:39;;;;;;;32.87;15.23;;;;;;;2.84;58.82;98162.84;124327;1105;104258;-72
2021/03/15 01:40:08;;;;;;;29.13;15.20;;;;;;;2.85;59.38;98163.70;124292;1105;104262;-73
2021/03/15 01:42:34;;;;;;;31.40;12.90;;;;;;;2.85;59.39;98164.53;124321;1105;104259;-72
2021/03/15 01:45:03;;;;;;;28.70;12.73;;;;;;;2.81;59.63;98161.24;124297;1103;104166;-71
2021/03/15 01:47:30;;;;;;;32.17;14.73;;;;;;;2.79;59.43;98160.48;124320;1105;104165;-71
2021/03/15 01:49:58;;;;;;;30.55;14.45;;;;;;;2.79;59.34;98162.24;124301;1105;104207;-71
2021/03/15 01:52:27;;;;;;;30.77;13.57;;;;;;;2.78;60.00;98156.16;124294;1105;104194;-70
2021/03/15 01:54:54;;;;;;;31.20;13.50;;;;;;;2.76;59.50;98144.03;124263;1105;104245;-70
2021/03/15 01:57:21;;;;;;;29.33;13.40;;;;;;;2.76;59.44;98150.14;124281;1105;104239;-69
2021/03/15 01:59:48;;;;;;;29.30;12.60;;;;;;;2.74;59.62;98141.50;124302;1105;104264;-71
2021/03/15 02:02:15;;;;;;;31.13;15.17;;;;;;;2.71;59.47;98140.80;124314;1105;104428;-72
2021/03/15 02:04:42;;;;;;;27.75;13.08;;;;;;;2.68;60.20;98136.59;124129;1105;104252;-71
2021/03/15 02:07:27;;;;;;;28.73;14.20;;;;;;;2.64;59.89;98137.69;124814;1105;104207;-70
2021/03/15 02:09:58;;;;;;;32.63;15.20;;;;;;;2.64;59.94;98138.55;126292;1105;102163;-71
2021/03/15 02:12:44;;;;;;;30.37;14.93;;;;;;;2.62;59.86;98136.92;125365;1105;104150;-71
2021/03/15 02:15:29;;;;;;;32.07;15.63;;;;;;;2.60;59.67;98139.64;124154;1105;104355;-71
2021/03/15 02:18:13;;;;;;;31.43;14.13;;;;;;;2.58;59.74;98140.64;124132;1105;104171;-71
2021/03/15 02:21:15;;;;;;;31.47;15.13;;;;;;;2.55;60.17;98127.68;124310;1105;104278;-72
2021/03/15 02:24:03;;;;;;;29.00;14.33;;;;;;;2.53;59.50;98136.48;124336;1105;104182;-72
2021/03/15 02:27:08;;;;;;;32.23;15.00;;;;;;;2.48;60.12;98137.69;124281;1104;104229;-72
2021/03/15 02:30:08;;;;;;;29.33;14.83;;;;;;;2.47;60.81;98136.82;124222;1105;104732;-71
2021/03/15 02:33:12;;;;;;;28.50;15.07;;;;;;;2.46;60.42;98129.05;124124;1105;104162;-73
2021/03/15 02:35:40;;;;;;;;;;;;;;;2.43;61.32;98132.70;124325;1105;104226;-72
2021/03/15 02:38:10;;;;;;;30.40;13.60;;;;;;;2.40;60.96;98130.23;124180;1105;104187;-72
2021/03/15 02:40:51;;;;;;;32.80;15.43;;;;;;;2.39;60.67;98128.54;124361;1105;104155;-72
2021/03/15 02:43:24;;;;;;;30.77;14.80;;;;;;;2.38;60.85;98138.17;124296;1105;104318;-71
2021/03/15 02:46:01;;;;;;;31.40;15.58;;;;;;;2.35;60.84;98138.34;124271;1105;104220;-71
2021/03/15 02:48:34;;;;;;;33.47;16.47;;;;;;;2.35;60.94;98140.97;124278;1106;104171;-71
2021/03/15 02:51:05;;;;;;;31.50;14.97;;;;;;;2.36;60.60;98145.28;124301;1105;104271;-73
2021/03/15 02:53:34;;;;;;;31.03;14.37;;;;;;;2.35;61.05;98138.34;124342;1106;104169;-73
2021/03/15 02:56:20;;;;;;;30.07;14.67;;;;;;;2.36;60.52;98141.83;124322;1105;104399;-72
2021/03/15 02:58:51;;;;;;;30.30;15.17;;;;;;;2.33;61.17;98141.98;124274;1105;104268;-70
2021/03/15 03:01:22;;;;;;;34.87;15.80;;;;;;;2.30;61.24;98150.86;124293;1105;104197;-71
2021/03/15 03:03:53;;;;;;;33.33;15.77;;;;;;;2.29;60.49;98146.53;124279;1105;104184;-70
2021/03/15 03:06:24;;;;;;;37.97;17.33;;;;;;;2.23;60.71;98150.34;124307;1105;104217;-73
2021/03/15 03:08:55;;;;;;;32.67;16.77;;;;;;;2.18;61.12;98147.12;124307;1105;104335;-69
2021/03/15 03:11:27;;;;;;;33.30;15.87;;;;;;;2.15;61.14;98146.45;124301;1105;104182;-71
2021/03/15 03:13:58;;;;;;;36.50;17.23;;;;;;;2.15;60.52;98141.20;124307;1105;104158;-72
2021/03/15 03:16:34;;;;;;;34.73;16.60;;;;;;;2.14;60.87;98142.96;124252;1106;104220;-71
2021/03/15 03:19:03;;;;;;;34.77;15.87;;;;;;;2.13;61.20;98146.52;124289;1105;104239;-71
2021/03/15 03:21:31;;;;;;;38.40;19.00;;;;;;;2.12;60.98;98142.19;124267;1106;104335;-71
2021/03/15 03:24:02;;;;;;;40.77;19.37;;;;;;;2.12;60.99;98143.98;124271;1105;104226;-72
2021/03/15 03:26:31;;;;;;;39.40;19.37;;;;;;;2.10;60.72;98145.84;124309;1105;104320;-70
2021/03/15 03:28:59;;;;;;;43.87;20.40;;;;;;;2.01;60.49;98144.55;124285;1105;104274;-71
2021/03/15 03:31:38;;;;;;;41.50;19.55;;;;;;;1.95;60.41;98140.46;124347;1104;104265;-71
2021/03/15 03:34:08;;;;;;;40.63;18.77;;;;;;;1.92;61.22;98138.86;124274;1105;104409;-70
2021/03/15 03:36:36;;;;;;;41.25;19.50;;;;;;;1.86;60.97;98133.93;124223;1104;104162;-73
2021/03/15 03:39:07;;;;;;;39.07;19.37;;;;;;;1.81;61.14;98135.11;124344;1105;104344;-73
2021/03/15 03:41:35;;;;;;;38.33;19.40;;;;;;;1.73;61.16;98133.73;124314;1105;104191;-72
2021/03/15 03:44:09;;;;;;;36.87;18.33;;;;;;;1.68;60.76;98130.48;124299;1105;104185;-71
2021/03/15 03:46:36;;;;;;;41.00;19.55;;;;;;;1.63;61.08;98132.49;124275;1105;104325;-71
2021/03/15 03:49:06;;;;;;;41.10;20.67;;;;;;;1.57;61.03;98124.94;124306;1105;104181;-71
2021/03/15 03:51:45;;;;;;;41.87;19.97;;;;;;;1.50;60.54;98132.28;124298;1106;104737;-71
2021/03/15 03:54:43;;;;;;;39.67;21.20;;;;;;;1.45;61.08;98137.73;124259;1105;104326;-71
2021/03/15 03:57:31;;;;;;;43.27;20.33;;;;;;;1.42;61.43;98129.19;124137;1105;104264;-71
2021/03/15 04:00:11;;;;;;;40.05;19.90;;;;;;;1.38;61.70;98127.65;124346;1105;104795;-71
2021/03/15 04:03:10;;;;;;;41.77;20.53;;;;;;;1.35;61.55;98133.91;124263;1105;104172;-69
2021/03/15 04:05:38;;;;;;;38.23;19.47;;;;;;;1.31;61.70;98127.12;124317;1105;104165;-72
2021/03/15 04:08:12;;;;;;;42.80;20.67;;;;;;;1.26;61.40;98126.50;124015;1105;104159;-72
2021/03/15 04:10:41;;;;;;;41.33;21.15;;;;;;;1.21;61.44;98128.49;124305;1105;104220;-72
2021/03/15 04:13:18;;;;;;;37.43;19.00;;;;;;;1.19;61.29;98132.03;124341;1105;104177;-72
2021/03/15 04:15:48;;;;;;;42.33;19.83;;;;;;;1.14;61.57;98123.55;124305;1105;104290;-72
2021/03/15 04:18:20;;;;;;;46.20;21.97;;;;;;;1.10;61.59;98127.24;124296;1105;104252;-74
2021/03/15 04:20:54;;;;;;;38.63;19.90;;;;;;;1.07;62.02;98122.16;124278;1106;104175;-71
2021/03/15 04:23:29;;;;;;;38.45;20.00;;;;;;;1.04;61.85;98131.02;124202;1105;104207;-71
2021/03/15 04:25:58;;;;;;;39.70;20.03;;;;;;;1.00;61.64;98134.71;124019;1105;104335;-72
2021/03/15 04:28:31;;;;;;;47.33;22.43;;;;;;;0.95;61.22;98141.94;124274;1105;104261;-73
2021/03/15 04:31:00;;;;;;;45.67;21.50;;;;;;;0.92;62.17;98141.25;124290;1105;104184;-72
2021/03/15 04:33:29;;;;;;;38.83;21.07;;;;;;;0.88;61.90;98145.77;124364;1105;104386;-71
2021/03/15 04:35:58;;;;;;;39.20;19.47;;;;;;;0.87;62.06;98141.45;124340;1105;104166;-70
2021/03/15 04:38:25;;;;;;;40.20;19.17;;;;;;;0.88;61.98;98145.77;124305;1105;104267;-71
2021/03/15 04:40:53;;;;;;;39.77;21.47;;;;;;;0.88;61.97;98159.72;124279;1105;104165;-72
2021/03/15 04:43:23;;;;;;;43.97;21.93;;;;;;;0.87;62.06;98163.27;124244;1105;104220;-72
2021/03/15 04:45:51;;;;;;;40.60;21.20;;;;;;;0.87;62.05;98158.03;124300;1105;104190;-74
2021/03/15 04:48:27;;;;;;;43.77;21.10;;;;;;;0.88;62.77;98164.09;124334;1105;104184;-73
2021/03/15 04:50:59;;;;;;;37.63;19.90;;;;;;;0.90;62.46;98164.87;124302;1105;104444;-73
2021/03/15 04:53:29;;;;;;;37.97;18.87;;;;;;;0.91;62.45;98169.19;124285;1105;104258;-73
2021/03/15 04:56:04;;;;;;;40.93;20.37;;;;;;;0.88;62.27;98161.48;124299;1105;104207;-72
2021/03/15 04:58:35;;;;;;;38.90;19.57;;;;;;;0.85;62.51;98175.58;124260;1105;104267;-73
2021/03/15 05:01:05;;;;;;;37.30;19.80;;;;;;;0.84;62.70;98176.50;124215;1105;104236;-75
2021/03/15 05:03:37;;;;;;;40.80;20.90;;;;;;;0.84;62.60;98181.73;124260;1105;104358;-73
2021/03/15 05:06:08;;;;;;;41.20;20.30;;;;;;;0.89;63.25;98184.98;123946;1105;104227;-72
2021/03/15 05:08:41;;;;;;;43.70;21.83;;;;;;;0.91;62.84;98178.83;124296;1105;104268;-72
2021/03/15 05:11:10;;;;;;;37.50;20.00;;;;;;;0.89;63.06;98171.89;124253;1105;104169;-73
2021/03/15 05:13:40;;;;;;;37.25;20.60;;;;;;;0.88;63.08;98174.57;124299;1106;104168;-72
2021/03/15 05:16:10;;;;;;;42.17;20.47;;;;;;;0.85;63.17;98174.71;124247;1105;104386;-73
2021/03/15 05:18:38;;;;;;;38.17;19.43;;;;;;;0.86;62.93;98176.41;124227;1105;104165;-73
2021/03/15 05:21:08;;;;;;;42.50;22.77;;;;;;;0.86;63.17;98172.04;124084;1105;104188;-72
2021/03/15 05:23:39;;;;;;;44.60;23.77;;;;;;;0.89;63.05;98173.65;124256;1105;104158;-72
2021/03/15 05:26:06;;;;;;;40.50;21.70;;;;;;;0.90;63.29;98172.73;124317;1105;104178;-72
2021/03/15 05:28:36;;;;;;;44.37;23.50;;;;;;;0.86;63.36;98166.80;124037;1105;104318;-73
2021/03/15 05:31:06;;;;;;;47.70;24.77;;;;;;;0.85;63.04;98177.33;124092;1105;104450;-74
2021/03/15 05:33:36;;;;;;;47.45;24.05;;;;;;;0.86;63.00;98172.04;124317;1105;104243;-73
2021/03/15 05:36:10;;;;;;;41.10;22.00;;;;;;;0.89;63.40;98177.13;123938;1105;104705;-73
2021/03/15 05:38:41;;;;;;;42.50;20.93;;;;;;;0.92;63.27;98170.89;124300;1105;104173;-73
2021/03/15 05:41:12;;;;;;;45.53;21.07;;;;;;;0.95;63.36;98175.98;124028;1105;104337;-74
2021/03/15 05:43:48;;;;;;;41.50;20.70;;;;;;;1.01;63.49;98173.07;124229;1106;104171;-75
2021/03/15 05:47:04;;;;;;;41.65;21.00;;;;;;;1.00;62.92;98175.78;124297;1105;104188;-74
2021/03/15 05:50:04;;;;;;;39.97;20.40;;;;;;;1.00;63.51;98176.61;124285;1105;104168;-73
2021/03/15 05:52:44;;;;;;;42.00;20.67;;;;;;;1.04;63.57;98177.30;123995;1106;104750;-73
2021/03/15 05:55:32;;;;;;;41.30;20.47;;;;;;;1.09;63.38;98170.07;125465;1105;104214;-74
2021/03/15 05:58:16;;;;;;;44.80;21.27;;;;;;;1.14;63.97;98169.88;124268;1105;104638;-73
2021/03/15 06:01:22;;;;;;;40.90;21.03;;;;;;;1.20;63.30;98182.67;124182;1105;104261;-73
2021/03/15 06:03:57;;;;;;;40.60;20.85;;;;;;;1.25;63.73;98180.65;124094;1105;104248;-74
2021/03/15 06:06:36;;;;;;;44.53;21.17;;;;;;;1.32;63.66;98183.84;124149;1105;104169;-73
2021/03/15 06:09:06;;;;;;;43.27;21.23;;;;;;;1.38;64.26;98180.92;124236;1105;104195;-75
2021/03/15 06:11:45;;;;;;;40.87;21.37;;;;;;;1.43;63.69;98178.06;123988;1105;104166;-74
2021/03/15 06:14:16;;;;;;;48.40;25.10;;;;;;;1.47;64.02;98179.61;124273;1105;104242;-75
2021/03/15 06:16:43;;;;;;;41.07;22.27;;;;;;;1.51;63.90;98185.53;124252;1105;104187;-74
2021/03/15 06:19:13;;;;;;;42.60;21.70;;;;;;;1.58;63.90;98192.17;124062;1106;104246;-74
2021/03/15 06:21:41;;;;;;;43.93;23.07;;;;;;;1.67;64.33;98180.36;124331;1105;104160;-74
2021/03/15 06:24:10;;;;;;;45.17;24.50;;;;;;;1.72;64.09;98183.60;124222;1105;104182;-75
2021/03/15 06:26:39;;;;;;;40.77;22.07;;;;;;;1.76;63.73;98191.25;124013;1105;104261;-74
2021/03/15 06:29:06;;;;;;;46.53;24.67;;;;;;;1.80;64.14;98189.31;124243;1105;104697;-75
2021/03/15 06:31:34;;;;;;;45.07;24.63;;;;;;;1.88;63.90;98191.53;124192;1105;104291;-74
2021/03/15 06:34:02;;;;;;;46.33;25.33;;;;;;;1.99;64.33;98199.70;124197;1105;104764;-74
2021/03/15 06:36:30;;;;;;;46.83;25.30;;;;;;;2.07;63.83;98189.67;124081;1105;104185;-75
2021/03/15 06:39:00;;;;;;;45.40;26.13;;;;;;;2.13;64.27;98187.66;124242;1106;104229;-73
2021/03/15 06:41:31;;;;;;;45.53;26.13;;;;;;;2.16;64.08;98190.12;123920;1106;104348;-74
2021/03/15 06:43:58;;;;;;;46.30;27.00;;;;;;;2.21;64.18;98194.19;124257;1105;104162;-73
2021/03/15 06:46:25;;;;;;;46.03;26.00;;;;;;;2.28;64.16;98194.70;123987;1106;104365;-73
2021/03/15 06:48:55;;;;;;;46.20;27.10;;;;;;;2.37;64.34;98190.77;123949;1105;104227;-73
2021/03/15 06:51:23;;;;;;;45.13;25.87;;;;;;;2.41;64.01;98197.55;124042;1105;104191;-73
2021/03/15 06:53:50;;;;;;;46.80;26.53;;;;;;;2.48;64.95;98200.69;124262;1105;104206;-72
2021/03/15 06:56:24;;;;;;;45.57;26.80;;;;;;;2.56;64.46;98201.13;124315;1105;104168;-71
2021/03/15 06:58:56;;;;;;;46.67;26.50;;;;;;;2.63;64.53;98197.24;124222;1105;104258;-75
2021/03/15 07:01:30;;;;;;;46.10;26.40;;;;;;;2.72;64.43;98193.26;124219;1105;104173;-76
2021/03/15 07:04:05;;;;;;;45.17;26.03;;;;;;;2.77;64.98;98196.48;124314;1105;104261;-75
2021/03/15 07:06:38;;;;;;;45.77;25.80;;;;;;;2.84;64.75;98196.98;123918;1105;102396;-74
2021/03/15 07:09:17;;;;;;;48.08;27.37;;;;;;;2.94;64.82;98200.80;124278;1105;104185;-74
2021/03/15 07:12:02;;;;;;;43.50;24.03;;;;;;;3.03;65.09;98193.35;124223;1105;104185;-74
2021/03/15 07:14:31;;;;;;;44.00;26.00;;;;;;;3.10;64.27;98197.30;124239;1105;104274;-74
2021/03/15 07:17:01;;;;;;;46.47;26.30;;;;;;;3.16;64.85;98196.13;124271;1106;104245;-73
2021/03/15 07:19:31;;;;;;;48.30;25.00;;;;;;;3.22;64.59;98193.16;124232;1106;104265;-75
2021/03/15 07:22:16;;;;;;;43.40;24.97;;;;;;;3.28;64.69;98195.41;124271;1105;104191;-72
2021/03/15 07:24:45;;;;;;;42.23;23.33;;;;;;;3.37;64.85;98201.95;124254;1105;104283;-76
2021/03/15 07:27:32;;;;;;;42.83;23.27;;;;;;;3.44;65.10;98198.05;123949;1105;104174;-75
2021/03/15 07:30:25;;;;;;;42.80;23.33;;;;;;;3.59;65.28;98201.56;124250;1105;104251;-75
2021/03/15 07:33:03;;;;;;;53.97;28.57;;;;;;;3.71;64.64;98203.45;124231;1105;104591;-76
2021/03/15 07:35:36;;;;;;;45.47;23.73;;;;;;;3.82;64.99;98205.48;124264;1105;104185;-73
2021/03/15 07:38:05;;;;;;;40.60;22.82;;;;;;;3.95;64.98;98200.33;123955;1106;104335;-73
2021/03/15 07:40:33;;;;;;;44.63;24.00;;;;;;;4.01;65.12;98204.38;124499;1105;104226;-72
2021/03/15 07:43:16;;;;;;;40.13;22.50;;;;;;;4.04;64.97;98209.45;124270;1105;104361;-73
2021/03/15 07:45:47;;;;;;;42.03;21.87;;;;;;;4.09;65.06;98210.03;124007;1106;104261;-73
2021/03/15 07:48:17;;;;;;;41.77;23.07;;;;;;;4.10;64.56;98211.72;124012;1106;104252;-71
2021/03/15 07:51:26;;;;;;;45.63;24.70;;;;;;;4.09;64.97;98215.30;124233;1105;104313;-74
2021/03/15 07:54:02;;;;;;;40.87;22.50;;;;;;;4.10;64.80;98211.72;124172;1105;104272;-73
2021/03/15 07:56:29;;;;;;;43.57;24.40;;;;;;;4.11;64.67;98213.41;124207;1105;104172;-73
2021/03/15 07:59:01;;;;;;;44.13;24.63;;;;;;;4.20;65.03;98212.01;124259;1105;104424;-73
2021/03/15 08:01:30;;;;;;;44.13;25.00;;;;;;;4.26;64.75;98213.45;124223;1105;104235;-73
2021/03/15 08:03:58;;;;;;;43.97;25.93;;;;;;;4.35;64.77;98217.30;124520;1105;104316;-73
2021/03/15 08:06:29;;;;;;;42.13;23.53;;;;;;;4.41;64.85;98209.86;124047;1106;104160;-73
2021/03/15 08:08:59;;;;;;;42.63;22.60;;;;;;;4.49;64.83;98211.18;124231;1105;104172;-72
2021/03/15 08:11:30;;;;;;;43.83;24.87;;;;;;;4.62;65.11;98220.02;124274;1105;104245;-72
2021/03/15 08:14:01;;;;;;;40.57;23.67;;;;;;;4.71;65.23;98216.80;124281;1105;104193;-73
2021/03/15 08:16:32;;;;;;;41.05;21.70;;;;;;;4.81;65.24;98213.59;124280;1105;104376;-72
2021/03/15 08:19:01;;;;;;;39.17;21.87;;;;;;;4.91;64.71;98212.91;124253;1106;104264;-73
2021/03/15 08:21:37;;;;;;;43.57;22.07;;;;;;;5.00;65.25;98208.86;124093;1106;104284;-71
2021/03/15 08:24:07;;;;;;;35.40;20.65;;;;;;;5.09;64.84;98215.33;124131;1105;104712;-73
2021/03/15 08:26:41;;;;;;;38.73;20.87;;;;;;;5.22;64.97;98218.02;125420;1104;104162;-76
2021/03/15 08:29:14;;;;;;;36.80;18.80;;;;;;;5.35;65.06;98215.42;124297;1104;104366;-75
2021/03/15 08:31:49;;;;;;;35.87;19.50;;;;;;;5.48;65.21;98223.41;124001;1105;104252;-74
2021/03/15 08:34:18;;;;;;;36.07;20.03;;;;;;;5.62;65.14;98219.86;124427;1105;104300;-72
2021/03/15 08:36:49;;;;;;;41.23;22.93;;;;;;;5.73;65.34;98217.34;124153;1105;104268;-73
2021/03/15 08:39:25;;;;;;;41.13;23.70;;;;;;;5.89;65.30;98222.46;124285;1105;104614;-72
2021/03/15 08:42:06;;;;;;;34.53;18.83;;;;;;;6.11;65.71;98213.94;124262;1105;104224;-74
2021/03/15 08:44:58;;;;;;;31.77;16.07;;;;;;;6.48;65.62;98215.85;123995;1105;104274;-73
2021/03/15 08:47:50;;;;;;;33.98;15.28;;;;;;;6.97;65.56;98214.17;124116;1106;104242;-73
2021/03/15 08:50:34;;;;;;;28.27;13.53;;;;;;;7.54;65.15;98203.92;124218;1105;104239;-72
2021/03/15 08:53:02;;;;;;;18.27;7.93;;;;;;;8.03;64.93;98199.38;124230;1105;104265;-74
2021/03/15 08:55:51;;;;;;;16.57;6.53;;;;;;;8.48;64.80;98195.98;124257;1105;104306;-72
2021/03/15 08:58:41;;;;;;;21.83;8.67;;;;;;;9.02;64.58;98198.00;124246;1105;104207;-72
2021/03/15 09:01:21;;;;;;;14.65;5.90;;;;;;;9.49;64.36;98190.64;124211;1105;104178;-72
2021/03/15 09:04:03;;;;;;;20.67;8.10;;;;;;;9.94;64.65;98191.40;124241;1105;104185;-71
2021/03/15 09:06:31;;;;;;;17.87;7.03;;;;;;;10.24;63.78;98185.27;124267;1105;104249;-73
2021/03/15 09:09:04;;;;;;;13.33;5.27;;;;;;;10.68;64.08;98182.45;124288;1105;104396;-73
2021/03/15 09:11:37;;;;;;;19.83;6.70;;;;;;;11.10;64.80;98172.63;124309;1103;104226;-72
2021/03/15 09:14:16;;;;;;;19.20;7.33;;;;;;;11.38;63.79;98164.81;124191;1105;104361;-72
2021/03/15 09:16:45;;;;;;;20.40;8.73;;;;;;;11.40;64.16;98161.05;124033;1105;104181;-71
2021/03/15 09:19:20;;;;;;;23.10;11.20;;;;;;;11.51;63.39;98156.54;124242;1105;104220;-72
2021/03/15 09:22:02;;;;;;;20.37;8.93;;;;;;;11.69;63.30;98159.33;124217;1105;104342;-72
2021/03/15 09:24:53;;;;;;;21.87;8.60;;;;;;;11.68;63.24;98155.84;124236;1105;104351;-72
2021/03/15 09:27:35;;;;;;;18.80;7.50;;;;;;;11.89;63.33;98155.69;124329;1105;104255;-72
2021/03/15 09:30:30;;;;;;;19.00;7.13;;;;;;;12.03;62.87;98148.23;123970;1105;104310;-72
2021/03/15 09:32:58;;;;;;;17.47;7.47;;;;;;;12.03;63.14;98149.09;124184;1105;104143;-72
2021/03/15 09:35:40;;;;;;;17.73;7.57;;;;;;;11.95;62.96;98148.93;124287;1105;104262;-72
2021/03/15 09:38:14;;;;;;;16.30;6.90;;;;;;;12.03;63.11;98148.23;124132;1105;104225;-73
2021/03/15 09:40:53;;;;;;;17.73;6.97;;;;;;;12.08;62.19;98145.16;124535;1105;104166;-74
2021/03/15 09:43:33;;;;;;;17.10;6.83;;;;;;;11.80;62.60;98148.53;124189;1105;104168;-74
2021/03/15 09:46:04;;;;;;;16.37;6.40;;;;;;;11.46;62.74;98138.33;124217;1106;104211;-74
2021/03/15 09:48:33;;;;;;;17.23;6.80;;;;;;;11.27;62.59;98144.48;124277;1105;104175;-73
2021/03/15 09:51:05;;;;;;;19.13;7.23;;;;;;;11.25;62.40;98135.80;124283;1105;104169;-71
2021/03/15 09:53:35;;;;;;;15.93;6.47;;;;;;;11.43;62.44;98138.61;124736;1105;104136;-70
2021/03/15 09:56:09;;;;;;;17.83;6.83;;;;;;;11.55;62.21;98134.83;124261;1105;104172;-73
2021/03/15 09:58:37;;;;;;;;;;;;;;;11.60;61.24;98132.59;124239;1105;104191;-71
2021/03/15 10:01:10;;;;;;;16.03;6.03;;;;;;;11.61;61.34;98126.25;124120;1105;104310;-71
2021/03/15 10:03:38;;;;;;;14.60;5.50;;;;;;;11.72;62.47;98130.61;123829;1105;104246;-72
2021/03/15 10:06:07;;;;;;;14.60;5.30;;;;;;;11.82;61.64;98119.92;124098;1105;104217;-72
2021/03/15 10:08:34;;;;;;;19.50;6.10;;;;;;;11.71;61.73;98131.59;124065;1105;104317;-70
2021/03/15 10:11:02;;;;;;;15.87;5.73;;;;;;;11.41;60.54;98133.41;123891;1105;104220;-72
2021/03/15 10:13:32;;;;;;;15.17;5.50;;;;;;;11.21;61.00;98129.89;124125;1105;104563;-72
2021/03/15 10:16:06;;;;;;;13.33;4.70;;;;;;;11.05;60.70;98135.76;124140;1105;104632;-71
2021/03/15 10:18:34;;;;;;;12.97;4.30;;;;;;;11.03;61.50;98127.07;124232;1105;104254;-77
2021/03/15 10:21:02;;;;;;;7.90;3.93;;;;;;;11.15;61.26;98123.31;123909;1105;104300;-73
2021/03/15 10:23:32;;;;;;;12.13;4.07;;;;;;;11.18;60.74;98130.20;124257;1105;104264;-75
2021/03/15 10:26:02;;;;;;;8.93;3.93;;;;;;;11.25;60.59;98119.83;124171;1105;104284;-73
2021/03/15 10:28:30;;;;;;;9.87;4.07;;;;;;;11.45;60.61;98113.50;124177;1105;104262;-75
2021/03/15 10:31:18;;;;;;;14.87;5.07;;;;;;;11.69;60.92;98122.90;124088;1105;104271;-73
2021/03/15 10:33:46;;;;;;;15.33;5.53;;;;;;;11.88;60.97;98121.17;124000;1106;104252;-72
2021/03/15 10:36:19;;;;;;;13.67;5.03;;;;;;;12.04;61.21;98112.60;125471;1105;102449;-73
2021/03/15 10:38:48;;;;;;;13.83;5.00;;;;;;;12.19;60.02;98124.50;124287;1105;104179;-73
2021/03/15 10:41:17;;;;;;;12.77;4.60;;;;;;;12.16;59.51;98115.96;124245;1105;104255;-73
2021/03/15 10:43:46;;;;;;;14.07;4.67;;;;;;;11.90;59.36;98108.55;124192;1105;104172;-72
2021/03/15 10:46:26;;;;;;;9.97;4.40;;;;;;;11.60;58.95;98111.28;124364;1105;104226;-73
2021/03/15 10:48:54;;;;;;;13.50;4.33;;;;;;;11.49;59.22;98106.09;124270;1105;104274;-73
2021/03/15 10:51:23;;;;;;;11.93;4.43;;;;;;;11.43;59.22;98096.00;126085;1105;103588;-73
2021/03/15 10:54:10;;;;;;;8.13;3.70;;;;;;;11.42;59.05;98091.66;124208;1105;104255;-73
2021/03/15 10:57:17;;;;;;;12.63;4.47;;;;;;;11.43;59.52;98094.16;124306;1105;104245;-74
2021/03/15 10:59:50;;;;;;;8.67;3.60;;;;;;;11.51;58.82;98090.82;124263;1105;104182;-75
2021/03/15 11:02:28;;;;;;;13.58;3.95;;;;;;;11.58;58.46;98089.27;124360;1105;104608;-73
2021/03/15 11:04:59;;;;;;;11.53;3.87;;;;;;;11.61;58.39;98088.96;124331;1105;104255;-73
2021/03/15 11:07:37;;;;;;;9.93;3.97;;;;;;;11.60;58.81;98081.98;124285;1105;104286;-73
2021/03/15 11:10:07;;;;;;;9.90;4.03;;;;;;;11.55;58.48;98075.38;124270;1105;104239;-74
2021/03/15 11:12:43;;;;;;;11.13;4.30;;;;;;;11.47;58.71;98070.78;124259;1105;104166;-73
2021/03/15 11:15:15;;;;;;;9.50;4.27;;;;;;;11.44;58.62;98073.72;124318;1105;104160;-72
2021/03/15 11:17:57;;;;;;;10.57;4.47;;;;;;;11.37;58.30;98065.47;124294;1105;104313;-75
2021/03/15 11:20:43;;;;;;;13.05;4.30;;;;;;;11.24;58.23;98064.91;124259;1105;104166;-74
2021/03/15 11:23:26;;;;;;;11.10;4.23;;;;;;;11.11;58.10;98058.03;124268;1105;104229;-74
2021/03/15 11:26:01;;;;;;;11.93;4.50;;;;;;;11.07;58.17;98058.47;124235;1105;104255;-73
2021/03/15 11:28:43;;;;;;;11.38;4.10;;;;;;;10.96;57.39;98052.30;124293;1105;104303;-74
2021/03/15 11:31:22;;;;;;;11.80;4.20;;;;;;;10.94;57.42;98043.61;124232;1105;104273;-73
2021/03/15 11:34:02;;;;;;;13.30;4.63;;;;;;;10.98;57.62;98047.67;124263;1105;104165;-73
2021/03/15 11:36:31;;;;;;;15.63;5.07;;;;;;;11.00;57.64;98043.05;124269;1105;104207;-73
2021/03/15 11:39:05;;;;;;;13.47;5.30;;;;;;;11.02;57.51;98034.92;124302;1105;104245;-73